Terminal Aerodrome Forecast
Issued by NWS Des Moines, IA

Home | Current Version | Previous Version | Text Only | Print | Product List | Glossary On
Versions: 1 2 3 4 5 6 7 8 9 10 11 12 13 14 15 16 17 18 19 20 21 22 23 24 25 26 27 28 29 30
000
FTUS43 KDMX 220520
TAFALO
TAF
KALO 220520Z 2206/2306 13008KT P6SM SKC
     FM221500 15013KT P6SM SCT060
     FM221900 16013KT P6SM BKN050
     FM230000 15010KT P6SM BKN040=

USA.gov is the U.S. government's official web portal to all federal, state and local government web resources and services.